createdAt,value
2018-09-04T00:01:33.384Z,79.32
2018-09-04T00:04:02.226Z,79.27
2018-09-04T00:06:31.103Z,79.46
2018-09-04T00:08:59.980Z,79.66
2018-09-04T00:11:28.871Z,79.36
2018-09-04T00:13:57.716Z,79.79
2018-09-04T00:16:26.573Z,79.98
2018-09-04T00:18:55.442Z,80.21
2018-09-04T00:21:24.293Z,80.03
2018-09-04T00:23:53.161Z,79.98
2018-09-04T00:26:22.094Z,79.95
2018-09-04T00:28:50.937Z,79.95
2018-09-04T00:31:19.794Z,80.18
2018-09-04T00:33:48.673Z,80.02
2018-09-04T00:36:17.562Z,79.96
2018-09-04T00:38:46.406Z,80.08
2018-09-04T00:41:15.243Z,80.23
2018-09-04T00:43:44.145Z,80.21
2018-09-04T00:46:13.002Z,80.27
2018-09-04T00:48:41.831Z,80.34
2018-09-04T00:51:10.687Z,80.31
2018-09-04T00:53:39.517Z,80.36
2018-09-04T00:56:08.395Z,80.44
2018-09-04T00:58:37.268Z,80.16
2018-09-04T01:01:06.111Z,80.70
2018-09-04T01:03:34.966Z,80.76
2018-09-04T01:06:03.845Z,80.75
2018-09-04T01:08:32.715Z,80.78
2018-09-04T01:11:01.627Z,81.09
2018-09-04T01:13:30.480Z,81.10
2018-09-04T01:15:59.339Z,81.31
2018-09-04T01:18:28.230Z,81.20
2018-09-04T01:20:57.076Z,81.37
2018-09-04T01:23:25.982Z,81.21
2018-09-04T01:25:54.814Z,81.20
2018-09-04T01:28:23.686Z,81.21
2018-09-04T01:30:52.536Z,81.11
2018-09-04T01:33:21.399Z,79.71
2018-09-04T01:35:50.286Z,80.74
2018-09-04T01:38:19.145Z,80.65
2018-09-04T01:40:48.039Z,79.53
2018-09-04T01:43:16.902Z,78.96
2018-09-04T01:45:45.769Z,80.03
2018-09-04T01:48:15.172Z,80.04
2018-09-04T01:50:44.593Z,80.19
2018-09-04T01:53:13.701Z,80.27
2018-09-04T01:55:42.565Z,80.12
2018-09-04T01:58:11.423Z,80.32
2018-09-04T02:00:40.268Z,80.47
2018-09-04T02:03:09.141Z,80.46
2018-09-04T02:05:37.994Z,80.67
2018-09-04T02:08:06.897Z,80.81
2018-09-04T02:10:35.760Z,80.73
2018-09-04T02:13:04.661Z,80.47
2018-09-04T02:15:33.538Z,80.44
2018-09-04T02:18:02.375Z,80.35
2018-09-04T02:20:31.247Z,80.56
2018-09-04T02:23:00.108Z,80.58
2018-09-04T02:25:29.114Z,80.58
2018-09-04T02:27:58.006Z,79.86
2018-09-04T02:30:26.877Z,80.83
2018-09-04T02:32:55.794Z,80.73
2018-09-04T02:35:24.574Z,79.55
2018-09-04T02:37:53.412Z,80.64
2018-09-04T02:40:22.267Z,80.81
2018-09-04T02:42:51.128Z,80.86
2018-09-04T02:45:19.956Z,80.81
2018-09-04T02:47:48.877Z,80.75
2018-09-04T02:50:17.727Z,80.71
2018-09-04T02:52:46.594Z,80.86
2018-09-04T02:55:15.425Z,80.87
2018-09-04T02:57:44.376Z,80.96
2018-09-04T03:00:13.238Z,80.93
2018-09-04T03:02:42.088Z,79.12
2018-09-04T03:05:10.969Z,80.29
2018-09-04T03:07:39.840Z,80.29
2018-09-04T03:10:08.826Z,80.51
2018-09-04T03:12:37.766Z,80.90
2018-09-04T03:15:06.670Z,79.63
2018-09-04T03:17:35.513Z,80.30
2018-09-04T03:20:04.498Z,80.56
2018-09-04T03:22:33.337Z,79.51
2018-09-04T03:25:02.219Z,79.43
2018-09-04T03:27:31.083Z,78.92
2018-09-04T03:29:59.932Z,80.31
2018-09-04T03:32:28.775Z,80.58
2018-09-04T03:34:57.654Z,80.22
2018-09-04T03:37:26.517Z,80.24
2018-09-04T03:39:55.333Z,80.50
2018-09-04T03:42:24.296Z,80.23
2018-09-04T03:44:53.056Z,80.38
2018-09-04T03:47:21.901Z,80.66
2018-09-04T03:49:50.789Z,80.71
2018-09-04T03:52:19.678Z,80.84
2018-09-04T03:54:48.480Z,79.70
2018-09-04T03:57:17.354Z,80.82
2018-09-04T03:59:46.200Z,80.73
2018-09-04T04:02:15.084Z,80.96
2018-09-04T04:04:43.931Z,80.91
2018-09-04T04:07:12.816Z,80.67
2018-09-04T04:09:41.658Z,80.60
2018-09-04T04:12:10.639Z,80.92
2018-09-04T04:14:39.340Z,80.83
2018-09-04T04:17:08.445Z,81.01
2018-09-04T04:19:37.272Z,81.21
2018-09-04T04:22:06.262Z,81.29
2018-09-04T04:24:35.187Z,81.19
2018-09-04T04:27:04.034Z,81.00
2018-09-04T04:29:33.095Z,79.71
2018-09-04T04:32:01.923Z,80.72
2018-09-04T04:34:30.785Z,80.45
2018-09-04T04:36:59.622Z,80.43
2018-09-04T04:39:28.497Z,80.43
2018-09-04T04:41:57.559Z,80.65
2018-09-04T04:44:26.634Z,80.39
2018-09-04T04:46:55.467Z,80.50
2018-09-04T04:49:24.494Z,80.50
2018-09-04T04:51:53.281Z,80.63
2018-09-04T04:54:22.152Z,80.75
2018-09-04T04:56:51.033Z,80.92
2018-09-04T04:59:19.915Z,80.89
2018-09-04T05:01:48.800Z,80.64
2018-09-04T05:04:17.674Z,80.92
2018-09-04T05:06:46.506Z,80.98
2018-09-04T05:09:15.408Z,80.78
2018-09-04T05:11:44.269Z,80.84
2018-09-04T05:14:13.188Z,80.79
2018-09-04T05:16:42.045Z,80.89
2018-09-04T05:19:10.900Z,80.88
2018-09-04T05:21:39.785Z,80.53
2018-09-04T05:24:08.660Z,80.46
2018-09-04T05:26:37.497Z,80.33
2018-09-04T05:29:06.371Z,80.45
2018-09-04T05:31:39.884Z,80.48
2018-09-04T05:34:08.806Z,80.27
2018-09-04T05:36:37.694Z,80.26
2018-09-04T05:39:08.833Z,80.16
2018-09-04T05:41:37.685Z,80.04
2018-09-04T05:44:06.547Z,78.53
2018-09-04T05:46:38.116Z,79.47
2018-09-04T05:49:07.464Z,79.41
2018-09-04T05:51:36.359Z,79.36
2018-09-04T05:54:05.208Z,79.43
2018-09-04T05:56:34.062Z,79.48
2018-09-04T05:59:02.893Z,79.22
2018-09-04T06:01:32.017Z,79.15
2018-09-04T06:04:00.883Z,79.07
2018-09-04T06:06:29.734Z,78.92
2018-09-04T06:08:58.573Z,78.92
2018-09-04T06:11:27.425Z,78.77
2018-09-04T06:13:56.274Z,78.47
2018-09-04T06:16:25.129Z,78.03
2018-09-04T06:18:53.987Z,76.24
2018-09-04T06:21:22.826Z,76.91
2018-09-04T06:23:51.671Z,76.60
2018-09-04T06:26:20.529Z,76.30
2018-09-04T06:28:49.372Z,76.00
2018-09-04T06:31:18.216Z,75.65
2018-09-04T06:33:47.123Z,75.44
2018-09-04T06:36:15.975Z,75.21
2018-09-04T06:38:44.837Z,75.09
2018-09-04T06:41:13.683Z,75.06
2018-09-04T06:43:42.943Z,74.93
2018-09-04T06:46:11.795Z,75.29
2018-09-04T06:48:40.795Z,75.25
2018-09-04T06:51:09.701Z,75.38
2018-09-04T06:53:38.566Z,75.53
2018-09-04T06:56:07.483Z,75.43
2018-09-04T06:58:36.297Z,75.49
2018-09-04T07:01:05.264Z,75.41
2018-09-04T07:03:34.144Z,75.53
2018-09-04T07:06:03.071Z,75.61
2018-09-04T07:08:32.035Z,75.66
2018-09-04T07:11:00.905Z,75.45
2018-09-04T07:13:29.771Z,75.08
2018-09-04T07:15:58.622Z,74.94
2018-09-04T07:18:28.310Z,74.86
2018-09-04T07:20:57.183Z,74.72
2018-09-04T07:23:26.321Z,73.57
2018-09-04T07:25:55.165Z,72.66
2018-09-04T07:28:24.090Z,71.54
2018-09-04T07:30:52.950Z,71.35
2018-09-04T07:33:21.839Z,70.82
2018-09-04T07:35:50.739Z,70.08
2018-09-04T07:38:19.802Z,69.32
2018-09-04T07:40:48.552Z,68.15
2018-09-04T07:43:17.421Z,67.30
2018-09-04T07:45:46.276Z,66.37
2018-09-04T07:48:15.171Z,66.03
2018-09-04T07:50:44.085Z,65.22
2018-09-04T07:53:12.985Z,64.52
2018-09-04T07:55:41.846Z,61.72
2018-09-04T07:58:10.724Z,60.38
2018-09-04T08:00:39.613Z,60.07
2018-09-04T08:03:08.571Z,59.57
2018-09-04T08:05:37.716Z,59.50
2018-09-04T08:08:06.644Z,58.05
2018-09-04T08:10:36.224Z,55.99
2018-09-04T08:13:06.613Z,53.00
2018-09-04T08:15:36.036Z,52.03
2018-09-04T08:18:05.072Z,52.82
2018-09-04T08:20:34.143Z,53.96
2018-09-04T08:23:02.830Z,54.63
2018-09-04T08:25:31.833Z,53.78
2018-09-04T08:28:00.713Z,53.67
2018-09-04T08:30:29.584Z,53.38
2018-09-04T08:32:58.589Z,53.41
2018-09-04T08:35:27.307Z,52.27
2018-09-04T08:37:59.343Z,49.10
2018-09-04T08:40:29.629Z,45.18
2018-09-04T08:42:58.545Z,42.44
2018-09-04T08:45:27.432Z,39.86
2018-09-04T08:47:59.190Z,38.43
2018-09-04T08:50:28.657Z,36.63
2018-09-04T08:52:57.512Z,35.20
2018-09-04T08:55:26.494Z,33.36
2018-09-04T08:57:55.270Z,33.26
2018-09-04T09:00:24.159Z,32.85
2018-09-04T09:02:53.017Z,32.00
2018-09-04T09:05:21.888Z,30.16
2018-09-04T09:07:50.733Z,29.34
2018-09-04T09:10:19.615Z,28.99
2018-09-04T09:12:48.517Z,29.73
2018-09-04T09:15:17.346Z,29.92
2018-09-04T09:17:46.199Z,29.85
2018-09-04T09:20:15.089Z,29.77
2018-09-04T09:22:44.294Z,29.09
2018-09-04T09:25:13.174Z,29.23
2018-09-04T09:27:42.144Z,30.32
2018-09-04T09:30:11.473Z,26.98
2018-09-04T09:32:40.474Z,28.84
2018-09-04T09:35:09.508Z,28.87
2018-09-04T09:37:38.356Z,28.60
2018-09-04T09:40:07.238Z,28.31
2018-09-04T09:42:36.254Z,27.87
2018-09-04T09:45:05.501Z,26.23
2018-09-04T09:47:34.362Z,27.82
2018-09-04T09:50:03.224Z,27.67
2018-09-04T09:52:32.158Z,28.04
2018-09-04T09:55:00.944Z,28.52
2018-09-04T09:57:29.807Z,27.04
2018-09-04T09:59:58.725Z,28.49
2018-09-04T10:02:45.233Z,28.58
2018-09-04T10:05:14.075Z,30.14
2018-09-04T10:07:43.019Z,31.71
2018-09-04T10:10:11.879Z,32.68
2018-09-04T10:12:40.661Z,31.57
2018-09-04T10:15:09.517Z,30.32
2018-09-04T10:17:38.383Z,30.45
2018-09-04T10:20:07.219Z,29.44
2018-09-04T10:22:36.088Z,32.94
2018-09-04T10:25:05.461Z,34.37
2018-09-04T10:27:34.595Z,34.25
2018-09-04T10:30:03.638Z,33.87
2018-09-04T10:32:32.560Z,30.71
2018-09-04T10:35:01.543Z,33.64
2018-09-04T10:37:30.495Z,35.85
2018-09-04T10:40:17.444Z,34.61
2018-09-04T10:42:46.326Z,33.18
2018-09-04T10:45:32.846Z,32.31
2018-09-04T10:48:01.708Z,31.35
2018-09-04T10:50:30.568Z,30.90
2018-09-04T10:52:59.422Z,30.93
2018-09-04T10:55:28.312Z,33.24
2018-09-04T10:57:57.258Z,34.84
2018-09-04T11:00:26.102Z,34.63
2018-09-04T11:02:54.962Z,36.16
2018-09-04T11:05:23.831Z,34.88
2018-09-04T11:07:52.709Z,35.69
2018-09-04T11:10:21.562Z,35.91
2018-09-04T11:12:50.479Z,36.69
2018-09-04T11:15:19.357Z,37.26
2018-09-04T11:17:48.204Z,38.22
2018-09-04T11:20:17.069Z,39.45
2018-09-04T11:22:45.937Z,38.35
2018-09-04T11:25:14.894Z,38.69
2018-09-04T11:27:43.812Z,39.32
2018-09-04T11:30:16.199Z,39.18
2018-09-04T11:32:45.150Z,39.80
2018-09-04T11:35:14.112Z,40.60
2018-09-04T11:37:43.234Z,40.28
2018-09-04T11:40:12.114Z,38.92
2018-09-04T11:42:41.201Z,39.38
2018-09-04T11:45:10.551Z,39.21
2018-09-04T11:47:41.579Z,38.43
2018-09-04T11:50:10.865Z,39.33
2018-09-04T11:52:42.534Z,40.19
2018-09-04T11:55:11.909Z,40.66
2018-09-04T11:57:41.400Z,41.37
2018-09-04T12:00:15.919Z,39.54
2018-09-04T12:02:45.303Z,40.83
2018-09-04T12:05:14.287Z,39.85
2018-09-04T12:07:43.145Z,40.88
2018-09-04T12:10:12.009Z,41.32
2018-09-04T12:12:41.159Z,41.45
2018-09-04T12:15:09.841Z,42.73
2018-09-04T12:17:38.732Z,44.48
2018-09-04T12:20:34.984Z,45.88
2018-09-04T12:23:03.809Z,47.33
2018-09-04T12:25:32.664Z,48.23
2018-09-04T12:28:02.733Z,47.85
2018-09-04T12:30:31.685Z,48.02
2018-09-04T12:33:01.287Z,47.95
2018-09-04T12:35:30.611Z,48.34
2018-09-04T12:37:59.709Z,48.33
2018-09-04T12:40:28.569Z,49.25
2018-09-04T12:42:57.419Z,50.53
2018-09-04T12:45:26.250Z,51.40
2018-09-04T12:47:55.169Z,52.54
2018-09-04T12:50:23.998Z,52.99
2018-09-04T12:52:52.819Z,53.23
2018-09-04T12:55:21.724Z,53.58
2018-09-04T12:57:50.615Z,53.72
2018-09-04T13:00:19.543Z,52.48
2018-09-04T13:02:48.409Z,51.72
2018-09-04T13:05:17.629Z,51.15
2018-09-04T13:07:46.498Z,51.63
2018-09-04T13:10:15.583Z,50.81
2018-09-04T13:12:44.471Z,50.55
2018-09-04T13:15:13.926Z,50.29
2018-09-04T13:17:42.767Z,51.26
2018-09-04T13:20:11.639Z,51.46
2018-09-04T13:22:40.473Z,50.77
2018-09-04T13:25:09.330Z,51.94
2018-09-04T13:27:38.170Z,52.95
2018-09-04T13:30:07.040Z,54.40
2018-09-04T13:32:35.952Z,55.61
2018-09-04T13:35:04.928Z,55.08
2018-09-04T13:37:33.796Z,54.70
2018-09-04T13:40:03.457Z,54.35
2018-09-04T13:42:33.445Z,54.94
2018-09-04T13:45:02.358Z,55.47
2018-09-04T13:47:32.776Z,55.33
2018-09-04T13:50:01.614Z,54.55
2018-09-04T13:52:31.481Z,55.18
2018-09-04T13:55:00.304Z,55.80
2018-09-04T13:57:29.685Z,55.86
2018-09-04T13:59:58.596Z,55.77
2018-09-04T14:02:27.461Z,55.69
2018-09-04T14:04:56.307Z,56.82
2018-09-04T14:07:25.193Z,57.13
2018-09-04T14:09:54.072Z,57.38
2018-09-04T14:12:22.891Z,58.15
2018-09-04T14:14:51.755Z,58.52
2018-09-04T14:17:21.122Z,58.94
2018-09-04T14:19:49.950Z,58.14
2018-09-04T14:22:18.867Z,57.91
2018-09-04T14:24:47.664Z,58.68
2018-09-04T14:27:16.519Z,59.17
2018-09-04T14:32:14.242Z,58.86
2018-09-04T14:34:43.072Z,58.74
2018-09-04T14:37:12.081Z,59.02
2018-09-04T14:39:40.800Z,58.96
2018-09-04T14:42:09.748Z,58.35
2018-09-04T14:44:38.559Z,57.94
2018-09-04T14:47:07.414Z,57.57
2018-09-04T14:49:36.290Z,57.66
2018-09-04T14:52:05.223Z,56.92
2018-09-04T14:54:34.106Z,56.69
2018-09-04T14:57:03.039Z,55.49
2018-09-04T14:59:31.846Z,55.24
2018-09-04T15:02:00.726Z,54.32
2018-09-04T15:04:29.575Z,54.72
2018-09-04T15:06:58.414Z,53.72
2018-09-04T15:09:27.254Z,53.58
2018-09-04T15:11:56.181Z,53.82
2018-09-04T15:14:25.028Z,53.85
2018-09-04T15:16:55.458Z,54.62
2018-09-04T15:19:24.372Z,54.60
2018-09-04T15:21:53.310Z,54.78
2018-09-04T15:24:22.159Z,54.66
2018-09-04T15:26:51.089Z,54.14
2018-09-04T15:29:19.964Z,54.20
2018-09-04T15:31:48.821Z,54.51
2018-09-04T15:34:17.669Z,55.39
2018-09-04T15:36:46.521Z,56.40
2018-09-04T15:39:15.370Z,56.13
2018-09-04T15:41:44.206Z,55.79
2018-09-04T15:44:13.096Z,55.94
2018-09-04T15:46:41.944Z,56.32
2018-09-04T15:49:28.358Z,54.91
2018-09-04T15:51:57.155Z,55.32
2018-09-04T15:54:26.022Z,55.78
2018-09-04T15:56:54.917Z,54.69
2018-09-04T15:59:23.672Z,54.85
2018-09-04T16:01:52.537Z,55.30
2018-09-04T16:04:21.365Z,55.98
2018-09-04T16:06:50.236Z,56.80
2018-09-04T16:09:19.041Z,56.53
2018-09-04T16:11:47.910Z,57.81
2018-09-04T16:14:16.796Z,58.56
2018-09-04T16:16:45.673Z,58.48
2018-09-04T16:19:14.531Z,58.54
2018-09-04T16:21:43.437Z,58.68
2018-09-04T16:24:12.271Z,58.44
2018-09-04T16:26:41.224Z,58.83
2018-09-04T16:29:10.061Z,59.19
2018-09-04T16:31:39.046Z,59.42
2018-09-04T16:34:07.934Z,59.94
2018-09-04T16:36:36.790Z,60.38
2018-09-04T16:39:06.071Z,60.77
2018-09-04T16:41:34.956Z,61.16
2018-09-04T16:44:04.264Z,61.29
2018-09-04T16:46:33.139Z,61.58
2018-09-04T16:49:02.018Z,61.86
2018-09-04T16:51:30.921Z,62.33
2018-09-04T16:53:59.779Z,62.76
2018-09-04T16:56:28.697Z,62.88
2018-09-04T16:58:57.647Z,63.29
2018-09-04T17:01:26.493Z,63.68
2018-09-04T17:03:55.413Z,63.77
2018-09-04T17:06:24.264Z,64.26
2018-09-04T17:08:53.153Z,63.90
2018-09-04T17:11:22.004Z,64.70
2018-09-04T17:13:50.877Z,64.64
2018-09-04T17:16:19.755Z,64.95
2018-09-04T17:18:48.639Z,65.34
2018-09-04T17:21:17.501Z,65.31
2018-09-04T17:23:46.369Z,65.41
2018-09-04T17:26:15.216Z,65.06
2018-09-04T17:28:44.053Z,65.37
2018-09-04T17:31:12.991Z,65.49
2018-09-04T17:33:41.853Z,65.65
2018-09-04T17:36:10.759Z,66.16
2018-09-04T17:38:39.676Z,66.24
2018-09-04T17:41:08.534Z,66.56
2018-09-04T17:43:37.407Z,66.84
2018-09-04T17:46:06.687Z,67.21
2018-09-04T17:48:35.630Z,67.01
2018-09-04T17:51:04.521Z,67.27
2018-09-04T17:53:33.433Z,67.26
2018-09-04T17:56:02.397Z,67.75
2018-09-04T17:58:31.258Z,68.00
2018-09-04T18:01:00.132Z,68.79
2018-09-04T18:03:29.021Z,69.16
2018-09-04T18:05:57.854Z,69.36
2018-09-04T18:08:26.744Z,69.80
2018-09-04T18:10:55.622Z,70.22
2018-09-04T18:13:24.461Z,70.12
2018-09-04T18:15:53.320Z,70.32
2018-09-04T18:18:22.151Z,70.73
2018-09-04T18:20:51.036Z,71.03
2018-09-04T18:23:19.915Z,71.50
2018-09-04T18:25:49.067Z,71.76
2018-09-04T18:28:17.929Z,72.15
2018-09-04T18:30:46.987Z,72.42
2018-09-04T18:33:15.826Z,72.87
2018-09-04T18:35:44.676Z,72.99
2018-09-04T18:38:13.550Z,73.36
2018-09-04T18:40:42.780Z,73.35
2018-09-04T18:43:11.823Z,73.59
2018-09-04T18:45:56.941Z,73.80
2018-09-04T18:48:26.424Z,73.82
2018-09-04T18:50:55.303Z,74.09
2018-09-04T18:53:24.159Z,74.15
2018-09-04T18:55:53.043Z,74.41
2018-09-04T18:58:21.980Z,74.55
2018-09-04T19:00:50.849Z,74.71
2018-09-04T19:03:19.736Z,74.95
2018-09-04T19:05:48.627Z,74.43
2018-09-04T19:08:17.536Z,74.99
2018-09-04T19:10:46.393Z,74.90
2018-09-04T19:13:15.245Z,74.87
2018-09-04T19:15:44.096Z,74.88
2018-09-04T19:18:13.107Z,75.21
2018-09-04T19:20:42.357Z,75.13
2018-09-04T19:23:11.759Z,75.14
2018-09-04T19:25:42.478Z,75.31
2018-09-04T19:28:11.377Z,75.53
2018-09-04T19:30:40.210Z,74.85
2018-09-04T19:33:09.118Z,75.15
2018-09-04T19:35:38.007Z,74.40
2018-09-04T19:38:06.878Z,75.60
2018-09-04T19:40:35.711Z,75.86
2018-09-04T19:43:04.548Z,75.59
2018-09-04T19:45:33.503Z,75.23
2018-09-04T19:48:02.341Z,74.74
2018-09-04T19:50:31.232Z,75.45
2018-09-04T19:53:00.137Z,75.46
2018-09-04T19:55:29.091Z,74.27
2018-09-04T19:57:57.886Z,75.20
2018-09-04T20:00:26.742Z,75.14
2018-09-04T20:02:55.661Z,75.25
2018-09-04T20:05:24.451Z,75.54
2018-09-04T20:07:53.285Z,75.52
2018-09-04T20:10:22.253Z,75.76
2018-09-04T20:12:51.143Z,75.65
2018-09-04T20:15:20.132Z,75.42
2018-09-04T20:17:49.183Z,75.25
2018-09-04T20:20:18.103Z,75.51
2018-09-04T20:22:47.041Z,75.66
2018-09-04T20:25:15.951Z,75.94
2018-09-04T20:27:44.896Z,75.93
2018-09-04T20:30:13.696Z,75.85
2018-09-04T20:32:42.572Z,75.49
2018-09-04T20:35:11.467Z,75.84
2018-09-04T20:37:40.328Z,75.94
2018-09-04T20:40:09.189Z,74.97
2018-09-04T20:42:38.049Z,76.03
2018-09-04T20:45:07.060Z,75.94
2018-09-04T20:47:35.904Z,74.62
2018-09-04T20:50:04.762Z,75.44
2018-09-04T20:52:33.605Z,75.73
2018-09-04T20:55:02.490Z,75.95
2018-09-04T20:57:34.423Z,76.14
2018-09-04T21:00:39.611Z,76.44
2018-09-04T21:03:44.784Z,76.94
2018-09-04T21:06:45.365Z,76.79
2018-09-04T21:10:00.937Z,76.71
2018-09-04T21:12:29.831Z,76.65
2018-09-04T21:14:58.728Z,76.57
2018-09-04T21:17:27.602Z,76.69
2018-09-04T21:19:56.476Z,76.99
2018-09-04T21:22:25.318Z,77.10
2018-09-04T21:24:54.209Z,77.13
2018-09-04T21:27:23.026Z,77.36
2018-09-04T21:29:51.868Z,77.56
2018-09-04T21:32:20.722Z,77.56
2018-09-04T21:34:49.542Z,77.52
2018-09-04T21:37:18.405Z,77.69
2018-09-04T21:39:47.263Z,77.98
2018-09-04T21:42:16.174Z,78.25
2018-09-04T21:44:44.989Z,78.40
2018-09-04T21:47:13.831Z,77.14
2018-09-04T21:49:42.704Z,77.94
2018-09-04T21:52:11.540Z,78.12
2018-09-04T21:54:40.409Z,78.02
2018-09-04T21:57:09.255Z,77.94
2018-09-04T21:59:38.110Z,77.59
2018-09-04T22:02:06.977Z,77.64
2018-09-04T22:04:35.843Z,77.63
2018-09-04T22:07:04.723Z,77.48
2018-09-04T22:09:37.164Z,77.71
2018-09-04T22:12:08.106Z,77.72
2018-09-04T22:14:36.954Z,77.59
2018-09-04T22:17:05.851Z,77.57
2018-09-04T22:19:34.685Z,77.70
2018-09-04T22:22:03.533Z,77.59
2018-09-04T22:24:34.705Z,77.63
2018-09-04T22:27:07.346Z,77.86
2018-09-04T22:29:37.690Z,77.96
2018-09-04T22:32:06.564Z,78.08
2018-09-04T22:34:35.373Z,78.27
2018-09-04T22:37:04.690Z,78.17
2018-09-04T22:39:33.532Z,78.26
2018-09-04T22:42:02.380Z,78.25
2018-09-04T22:44:31.224Z,78.27
2018-09-04T22:47:00.349Z,78.49
2018-09-04T22:49:29.200Z,78.46
2018-09-04T22:52:01.834Z,78.56
2018-09-04T22:54:30.691Z,78.41
2018-09-04T22:56:59.522Z,78.78
2018-09-04T22:59:28.474Z,79.10
2018-09-04T23:01:57.332Z,78.78
2018-09-04T23:04:26.220Z,78.60
2018-09-04T23:06:55.119Z,78.42
2018-09-04T23:09:23.928Z,78.13
2018-09-04T23:11:52.739Z,78.24
2018-09-04T23:14:21.615Z,78.22
2018-09-04T23:16:50.442Z,78.42
2018-09-04T23:19:19.262Z,78.38
2018-09-04T23:21:48.092Z,78.48
2018-09-04T23:24:16.975Z,78.50
2018-09-04T23:26:45.854Z,78.45
2018-09-04T23:29:14.708Z,78.23
2018-09-04T23:31:43.553Z,78.21
2018-09-04T23:34:12.395Z,78.29
2018-09-04T23:36:41.221Z,78.14
2018-09-04T23:39:10.120Z,76.58
2018-09-04T23:41:39.001Z,77.27
2018-09-04T23:44:07.954Z,77.11
2018-09-04T23:46:36.796Z,76.90
2018-09-04T23:49:06.548Z,76.43
2018-09-04T23:51:35.410Z,76.10
2018-09-04T23:54:04.257Z,76.30
2018-09-04T23:56:33.093Z,76.23
2018-09-04T23:59:01.959Z,76.23
